createdAt,value
2022-12-13T00:01:47.613Z,-4.95
2022-12-13T00:04:14.955Z,-4.99
2022-12-13T00:06:42.198Z,-5.00
2022-12-13T00:09:11.059Z,-5.00
2022-12-13T00:11:38.126Z,-5.07
2022-12-13T00:14:08.351Z,-5.03
2022-12-13T00:16:36.500Z,-5.06
2022-12-13T00:19:03.631Z,-5.11
2022-12-13T00:21:33.374Z,-5.13
2022-12-13T00:24:01.348Z,-5.14
2022-12-13T00:26:32.655Z,-5.22
2022-12-13T00:29:02.182Z,-5.10
2022-12-13T00:34:19.531Z,-5.15
2022-12-13T00:36:46.838Z,-5.18
2022-12-13T00:39:16.407Z,-5.13
2022-12-13T00:41:44.999Z,-5.08
2022-12-13T00:44:13.434Z,-5.04
2022-12-13T00:46:41.711Z,-5.14
2022-12-13T00:49:11.087Z,-5.14
2022-12-13T00:51:38.955Z,-5.20
2022-12-13T00:54:10.298Z,-5.20
2022-12-13T00:56:38.021Z,-5.25
2022-12-13T00:59:05.487Z,-5.41
2022-12-13T01:01:36.272Z,-5.46
2022-12-13T01:04:05.554Z,-5.44
2022-12-13T01:06:36.261Z,-5.47
2022-12-13T01:09:05.295Z,-5.49
2022-12-13T01:11:32.796Z,-5.56
2022-12-13T01:13:59.878Z,-5.49
2022-12-13T01:16:27.097Z,-5.40
2022-12-13T01:18:54.157Z,-5.40
2022-12-13T01:21:22.258Z,-5.45
2022-12-13T01:23:49.569Z,-5.40
2022-12-13T01:26:19.780Z,-5.43
2022-12-13T01:28:47.713Z,-5.41
2022-12-13T01:31:17.922Z,-5.42
2022-12-13T01:33:45.108Z,-5.52
2022-12-13T01:36:15.687Z,-5.41
2022-12-13T01:38:42.948Z,-5.41
2022-12-13T01:41:21.218Z,-5.37
2022-12-13T01:43:59.922Z,-5.44
2022-12-13T01:46:27.172Z,-5.41
2022-12-13T01:49:00.239Z,-5.40
2022-12-13T01:51:44.161Z,-5.48
2022-12-13T01:54:21.144Z,-5.64
2022-12-13T01:56:53.693Z,-5.73
2022-12-13T01:59:28.167Z,-5.61
2022-12-13T02:02:00.943Z,-5.56
2022-12-13T02:04:45.428Z,-5.56
2022-12-13T02:07:23.024Z,-5.57
2022-12-13T02:09:57.310Z,-5.57
2022-12-13T02:12:30.597Z,-5.56
2022-12-13T02:15:07.825Z,-5.57
2022-12-13T02:18:03.643Z,-5.61
2022-12-13T02:20:56.498Z,-5.56
2022-12-13T02:24:00.567Z,-5.59
2022-12-13T02:26:49.107Z,-5.70
2022-12-13T02:29:37.172Z,-5.72
2022-12-13T02:32:13.894Z,-5.80
2022-12-13T02:35:08.469Z,-5.81
2022-12-13T02:38:07.510Z,-5.85
2022-12-13T02:41:00.759Z,-5.86
2022-12-13T02:43:45.396Z,-5.78
2022-12-13T02:46:15.896Z,-5.81
2022-12-13T02:48:43.413Z,-5.87
2022-12-13T02:51:12.671Z,-5.90
2022-12-13T02:53:43.551Z,-5.90
2022-12-13T02:56:10.967Z,-5.92
2022-12-13T02:58:43.272Z,-5.92
2022-12-13T03:01:27.927Z,-5.94
2022-12-13T03:04:01.956Z,-5.89
2022-12-13T03:07:00.809Z,-5.85
2022-12-13T03:09:47.755Z,-5.81
2022-12-13T03:12:36.730Z,-5.84
2022-12-13T03:15:34.386Z,-5.93
2022-12-13T03:18:15.448Z,-5.96
2022-12-13T03:20:59.027Z,-5.90
2022-12-13T03:23:26.858Z,-5.83
2022-12-13T03:25:56.589Z,-5.85
2022-12-13T03:28:24.214Z,-5.89
2022-12-13T03:30:51.317Z,-5.97
2022-12-13T03:33:18.598Z,-5.95
2022-12-13T03:35:46.243Z,-5.96
2022-12-13T03:38:22.690Z,-6.03
2022-12-13T03:40:54.037Z,-6.00
2022-12-13T03:43:21.829Z,-6.08
2022-12-13T03:45:51.033Z,-6.07
2022-12-13T03:48:22.733Z,-6.09
2022-12-13T03:50:51.835Z,-6.05
2022-12-13T03:53:23.266Z,-6.02
2022-12-13T03:56:03.479Z,-6.07
2022-12-13T03:58:35.839Z,-6.06
2022-12-13T04:01:10.753Z,-6.10
2022-12-13T04:03:38.492Z,-6.16
2022-12-13T04:06:07.416Z,-6.21
2022-12-13T04:08:39.242Z,-6.20
2022-12-13T04:11:30.778Z,-6.18
2022-12-13T04:13:57.814Z,-6.12
2022-12-13T04:16:24.962Z,-6.07
2022-12-13T04:18:52.065Z,-6.09
2022-12-13T04:21:19.257Z,-6.15
2022-12-13T04:23:46.374Z,-6.07
2022-12-13T04:26:13.768Z,-6.01
2022-12-13T04:28:41.146Z,-6.01
2022-12-13T04:31:08.285Z,-6.06
2022-12-13T04:33:35.777Z,-6.05
2022-12-13T04:36:03.684Z,-6.13
2022-12-13T04:38:30.852Z,-6.26
2022-12-13T04:41:06.971Z,-6.26
2022-12-13T04:43:34.541Z,-6.28
2022-12-13T04:46:01.598Z,-6.26
2022-12-13T04:48:30.837Z,-6.23
2022-12-13T04:51:01.163Z,-6.19
2022-12-13T04:53:31.387Z,-6.20
2022-12-13T04:55:59.801Z,-6.23
2022-12-13T04:58:27.644Z,-6.26
2022-12-13T05:00:54.922Z,-6.33
2022-12-13T05:03:22.573Z,-6.39
2022-12-13T05:05:49.988Z,-6.28
2022-12-13T05:08:17.109Z,-6.24
2022-12-13T05:10:44.146Z,-6.24
2022-12-13T05:13:11.319Z,-6.18
2022-12-13T05:15:38.352Z,-6.18
2022-12-13T05:18:09.463Z,-6.13
2022-12-13T05:20:39.982Z,-6.19
2022-12-13T05:23:07.280Z,-6.27
2022-12-13T05:25:37.027Z,-6.29
2022-12-13T05:28:08.770Z,-6.28
2022-12-13T05:31:05.844Z,-6.26
2022-12-13T05:33:54.327Z,-6.30
2022-12-13T05:36:28.823Z,-6.37
2022-12-13T05:38:55.870Z,-6.52
2022-12-13T05:41:27.061Z,-6.50
2022-12-13T05:43:54.215Z,-6.45
2022-12-13T05:46:21.199Z,-6.41
2022-12-13T05:48:48.304Z,-6.36
2022-12-13T05:51:15.329Z,-6.32
2022-12-13T05:53:42.539Z,-6.36
2022-12-13T05:56:11.198Z,-6.42
2022-12-13T05:58:39.973Z,-6.42
2022-12-13T06:01:09.623Z,-6.47
2022-12-13T06:03:36.914Z,-6.52
2022-12-13T06:06:08.599Z,-6.49
2022-12-13T06:08:36.833Z,-6.54
2022-12-13T06:11:11.325Z,-6.49
2022-12-13T06:13:44.124Z,-6.43
2022-12-13T06:16:23.025Z,-6.37
2022-12-13T06:18:59.391Z,-6.38
2022-12-13T06:21:40.733Z,-6.28
2022-12-13T06:24:11.222Z,-6.24
2022-12-13T06:26:38.745Z,-6.22
2022-12-13T06:29:10.642Z,-6.23
2022-12-13T06:31:37.659Z,-6.20
2022-12-13T06:34:14.642Z,-6.26
2022-12-13T06:36:43.056Z,-6.26
2022-12-13T06:39:10.195Z,-6.28
2022-12-13T06:41:37.284Z,-6.28
2022-12-13T06:44:07.101Z,-6.22
2022-12-13T06:46:35.385Z,-6.17
2022-12-13T06:49:02.737Z,-6.20
2022-12-13T06:51:32.878Z,-6.10
2022-12-13T06:54:02.400Z,-6.08
2022-12-13T06:56:30.506Z,-6.17
2022-12-13T06:59:01.600Z,-6.14
2022-12-13T07:01:36.900Z,-6.21
2022-12-13T07:04:29.393Z,-6.20
2022-12-13T07:07:01.922Z,-6.21
2022-12-13T07:09:33.131Z,-6.15
2022-12-13T07:12:00.596Z,-6.09
2022-12-13T07:14:28.175Z,-6.03
2022-12-13T07:17:02.831Z,-5.99
2022-12-13T07:19:42.347Z,-6.02
2022-12-13T07:22:09.424Z,-5.97
2022-12-13T07:24:37.202Z,-5.97
2022-12-13T07:27:06.550Z,-5.99
2022-12-13T07:29:33.531Z,-6.00
2022-12-13T07:32:01.353Z,-6.03
2022-12-13T07:34:30.019Z,-6.02
2022-12-13T07:36:57.005Z,-6.09
2022-12-13T07:39:28.462Z,-6.16
2022-12-13T07:41:56.132Z,-6.25
2022-12-13T07:44:24.602Z,-6.26
2022-12-13T07:46:52.043Z,-6.25
2022-12-13T07:49:19.657Z,-6.17
2022-12-13T07:51:46.800Z,-6.16
2022-12-13T07:54:13.796Z,-6.24
2022-12-13T07:56:41.187Z,-6.22
2022-12-13T07:59:10.349Z,-6.26
2022-12-13T08:01:37.493Z,-6.20
2022-12-13T08:04:07.029Z,-6.14
2022-12-13T08:06:37.936Z,-6.09
2022-12-13T08:09:10.251Z,-6.05
2022-12-13T08:11:37.321Z,-5.99
2022-12-13T08:14:05.636Z,-6.15
2022-12-13T08:16:32.807Z,-5.95
2022-12-13T08:19:02.278Z,-5.88
2022-12-13T08:21:56.654Z,-5.85
2022-12-13T08:24:29.425Z,-5.87
2022-12-13T08:27:02.655Z,-5.96
2022-12-13T08:29:37.012Z,-5.92
2022-12-13T08:32:09.770Z,-5.85
2022-12-13T08:34:38.172Z,-5.86
2022-12-13T08:37:07.351Z,-5.85
2022-12-13T08:39:37.680Z,-5.70
2022-12-13T08:42:16.547Z,-5.67
2022-12-13T08:44:50.212Z,-5.57
2022-12-13T08:47:23.836Z,-5.50
2022-12-13T08:50:03.172Z,-5.37
2022-12-13T08:52:40.203Z,-5.32
2022-12-13T08:55:10.259Z,-5.34
2022-12-13T08:57:38.134Z,-5.35
2022-12-13T09:00:08.368Z,-5.25
2022-12-13T09:02:37.987Z,-5.21
2022-12-13T09:05:08.105Z,-5.16
2022-12-13T09:07:37.212Z,-5.14
2022-12-13T09:10:25.883Z,-5.10
2022-12-13T09:13:01.463Z,-5.03
2022-12-13T09:15:33.712Z,-4.98
2022-12-13T09:18:04.873Z,-4.97
2022-12-13T09:20:40.723Z,-4.88
2022-12-13T09:23:14.314Z,-4.89
2022-12-13T09:26:05.954Z,-4.79
2022-12-13T09:28:36.980Z,-4.76
2022-12-13T09:31:14.825Z,-4.70
2022-12-13T09:33:42.705Z,-4.62
2022-12-13T09:36:15.177Z,-4.49
2022-12-13T09:38:42.537Z,-4.46
2022-12-13T09:41:20.164Z,-4.39
2022-12-13T09:43:53.077Z,-4.23
2022-12-13T09:46:23.698Z,-4.17
2022-12-13T09:49:01.730Z,-4.15
2022-12-13T09:51:43.056Z,-4.04
2022-12-13T09:54:18.670Z,-3.99
2022-12-13T09:56:50.783Z,-3.93
2022-12-13T09:59:23.434Z,-3.92
2022-12-13T10:01:50.504Z,-3.88
2022-12-13T10:04:18.131Z,-3.86
2022-12-13T10:06:45.270Z,-3.81
2022-12-13T10:09:14.309Z,-3.86
2022-12-13T10:11:53.045Z,-3.77
2022-12-13T10:14:33.803Z,-3.68
2022-12-13T10:17:07.201Z,-3.68
2022-12-13T10:19:40.146Z,-3.65
2022-12-13T10:22:17.973Z,-3.60
2022-12-13T10:25:07.136Z,-3.59
2022-12-13T10:27:47.410Z,-3.50
2022-12-13T10:30:28.723Z,-3.45
2022-12-13T10:32:59.325Z,-3.44
2022-12-13T10:35:41.192Z,-3.39
2022-12-13T10:38:08.328Z,-3.33
2022-12-13T10:40:40.315Z,-3.35
2022-12-13T10:43:20.385Z,-3.34
2022-12-13T10:45:59.251Z,-3.26
2022-12-13T10:48:49.531Z,-3.22
2022-12-13T10:51:20.130Z,-3.16
2022-12-13T10:53:49.874Z,-3.10
2022-12-13T10:56:23.312Z,-3.06
2022-12-13T10:59:13.301Z,-3.08
2022-12-13T11:01:42.382Z,-3.07
2022-12-13T11:04:27.110Z,-2.95
2022-12-13T11:06:56.713Z,-2.94
2022-12-13T11:09:38.299Z,-2.91
2022-12-13T11:12:16.237Z,-2.89
2022-12-13T11:15:06.635Z,-2.82
2022-12-13T11:17:40.654Z,-2.81
2022-12-13T11:20:18.293Z,-2.84
2022-12-13T11:22:45.584Z,-2.83
2022-12-13T11:25:25.729Z,-2.74
2022-12-13T11:28:26.314Z,-2.68
2022-12-13T11:31:10.074Z,-2.61
2022-12-13T11:34:14.572Z,-2.64
2022-12-13T11:36:46.433Z,-2.63
2022-12-13T11:39:25.541Z,-2.63
2022-12-13T11:41:58.802Z,-2.62
2022-12-13T11:44:58.063Z,-2.61
2022-12-13T11:47:31.739Z,-2.73
2022-12-13T11:49:59.209Z,-2.61
2022-12-13T11:52:30.762Z,-2.64
2022-12-13T11:55:00.982Z,-2.67
2022-12-13T11:57:33.537Z,-2.73
2022-12-13T12:00:33.719Z,-2.74
2022-12-13T12:03:13.992Z,-2.70
2022-12-13T12:05:48.383Z,-2.71
2022-12-13T12:08:47.269Z,-2.70
2022-12-13T12:11:26.400Z,-2.66
2022-12-13T12:13:59.655Z,-2.64
2022-12-13T12:16:39.657Z,-2.66
2022-12-13T12:19:14.949Z,-2.63
2022-12-13T12:22:18.916Z,-2.60
2022-12-13T12:24:51.635Z,-2.59
2022-12-13T12:27:34.616Z,-2.53
2022-12-13T12:30:09.405Z,-2.50
2022-12-13T12:32:36.943Z,-2.41
2022-12-13T12:35:46.298Z,-2.36
2022-12-13T12:38:28.761Z,-2.38
2022-12-13T12:41:16.233Z,-2.41
2022-12-13T12:43:44.688Z,-2.52
2022-12-13T12:46:14.791Z,-2.29
2022-12-13T12:49:18.969Z,-2.26
2022-12-13T12:52:19.068Z,-2.16
2022-12-13T12:54:48.899Z,-2.17
2022-12-13T12:57:41.311Z,-2.18
2022-12-13T13:00:18.215Z,-2.29
2022-12-13T13:03:17.227Z,-2.21
2022-12-13T13:06:00.031Z,-2.18
2022-12-13T13:08:32.210Z,-2.19
2022-12-13T13:11:02.017Z,-2.23
2022-12-13T13:13:48.641Z,-2.30
2022-12-13T13:16:37.881Z,-2.32
2022-12-13T13:19:12.147Z,-2.36
2022-12-13T13:21:44.972Z,-2.36
2022-12-13T13:24:16.711Z,-2.47
2022-12-13T13:26:47.005Z,-2.43
2022-12-13T13:29:27.640Z,-2.45
2022-12-13T13:32:01.445Z,-2.43
2022-12-13T13:34:37.066Z,-2.42
2022-12-13T13:37:25.079Z,-2.38
2022-12-13T13:40:00.632Z,-2.38
2022-12-13T13:42:32.431Z,-2.40
2022-12-13T13:45:20.176Z,-2.41
2022-12-13T13:48:18.245Z,-2.43
2022-12-13T13:51:14.688Z,-2.41
2022-12-13T13:54:25.558Z,-2.43
2022-12-13T13:58:06.985Z,-2.43
2022-12-13T14:00:19.123Z,-2.40
2022-12-13T14:03:41.616Z,-2.41
2022-12-13T14:06:20.829Z,-2.38
2022-12-13T14:08:56.730Z,-2.40
2022-12-13T14:12:11.409Z,-2.40
2022-12-13T14:15:16.018Z,-2.38
2022-12-13T14:18:24.441Z,-2.39
2022-12-13T14:21:03.513Z,-2.40
2022-12-13T14:23:46.289Z,-2.43
2022-12-13T14:26:26.181Z,-2.46
2022-12-13T14:28:56.866Z,-2.48
2022-12-13T14:31:34.198Z,-2.50
2022-12-13T14:34:03.551Z,-2.54
2022-12-13T14:36:35.850Z,-2.58
2022-12-13T14:39:07.064Z,-2.58
2022-12-13T14:41:56.331Z,-2.63
2022-12-13T14:44:33.790Z,-2.66
2022-12-13T14:47:07.245Z,-2.71
2022-12-13T14:49:39.919Z,-2.71
2022-12-13T14:52:36.652Z,-2.74
2022-12-13T14:55:06.057Z,-2.77
2022-12-13T14:57:35.387Z,-2.79
2022-12-13T15:00:27.319Z,-2.83
2022-12-13T15:02:57.160Z,-2.83
2022-12-13T15:05:29.166Z,-2.91
2022-12-13T15:07:56.946Z,-2.90
2022-12-13T15:10:41.194Z,-2.91
2022-12-13T15:13:36.425Z,-2.97
2022-12-13T15:16:11.338Z,-2.99
2022-12-13T15:18:38.734Z,-3.06
2022-12-13T15:21:23.323Z,-3.04
2022-12-13T15:23:53.019Z,-3.08
2022-12-13T15:26:28.492Z,-3.04
2022-12-13T15:29:00.953Z,-3.05
2022-12-13T15:31:37.329Z,-3.04
2022-12-13T15:34:30.847Z,-3.13
2022-12-13T15:37:01.724Z,-3.13
2022-12-13T15:39:31.200Z,-3.18
2022-12-13T15:41:59.630Z,-3.08
2022-12-13T15:44:39.342Z,-3.13
2022-12-13T15:47:28.444Z,-3.16
2022-12-13T15:49:59.231Z,-3.20
2022-12-13T15:52:35.343Z,-3.24
2022-12-13T15:55:06.964Z,-3.21
2022-12-13T15:57:36.614Z,-3.33
2022-12-13T16:00:11.044Z,-3.32
2022-12-13T16:02:50.896Z,-3.35
2022-12-13T16:05:34.246Z,-3.37
2022-12-13T16:08:13.881Z,-3.42
2022-12-13T16:10:47.842Z,-3.43
2022-12-13T16:13:26.427Z,-3.52
2022-12-13T16:16:26.874Z,-3.47
2022-12-13T16:19:00.385Z,-3.47
2022-12-13T16:21:28.622Z,-3.52
2022-12-13T16:23:55.656Z,-3.55
2022-12-13T16:26:28.051Z,-3.57
2022-12-13T16:28:58.872Z,-3.56
2022-12-13T16:31:31.333Z,-3.53
2022-12-13T16:33:58.513Z,-3.51
2022-12-13T16:36:25.562Z,-3.57
2022-12-13T16:38:52.580Z,-3.57
2022-12-13T16:41:21.854Z,-3.54
2022-12-13T16:44:03.317Z,-3.57
2022-12-13T16:47:11.546Z,-3.57
2022-12-13T16:49:22.118Z,-3.57
2022-12-13T16:51:49.450Z,-3.59
2022-12-13T16:54:21.376Z,-3.63
2022-12-13T16:56:49.455Z,-3.58
2022-12-13T16:59:19.085Z,-3.61
2022-12-13T17:01:46.707Z,-3.69
2022-12-13T17:04:20.535Z,-3.74
2022-12-13T17:06:55.107Z,-3.77
2022-12-13T17:09:29.990Z,-3.79
2022-12-13T17:11:57.064Z,-3.82
2022-12-13T17:14:24.191Z,-3.82
2022-12-13T17:16:51.521Z,-3.83
2022-12-13T17:19:18.751Z,-3.86
2022-12-13T17:21:45.900Z,-3.90
2022-12-13T17:24:12.985Z,-3.87
2022-12-13T17:26:41.249Z,-3.85
2022-12-13T17:29:21.100Z,-3.79
2022-12-13T17:31:49.157Z,-3.84
2022-12-13T17:34:16.195Z,-3.85
2022-12-13T17:36:43.637Z,-3.78
2022-12-13T17:39:12.283Z,-3.75
2022-12-13T17:41:39.900Z,-3.76
2022-12-13T17:44:08.893Z,-3.76
2022-12-13T17:46:37.006Z,-3.77
2022-12-13T17:49:04.721Z,-3.82
2022-12-13T17:51:33.282Z,-3.75
2022-12-13T17:54:00.563Z,-3.79
2022-12-13T17:56:27.720Z,-3.78
2022-12-13T17:58:54.818Z,-3.80
2022-12-13T18:01:25.572Z,-3.80
2022-12-13T18:03:55.728Z,-3.76
2022-12-13T18:06:24.807Z,-3.76
2022-12-13T18:08:51.949Z,-3.80
2022-12-13T18:11:35.628Z,-3.78
2022-12-13T18:14:06.117Z,-3.80
2022-12-13T18:16:37.396Z,-3.89
2022-12-13T18:19:11.744Z,-3.88
2022-12-13T18:21:39.462Z,-3.87
2022-12-13T18:24:07.436Z,-3.86
2022-12-13T18:26:35.500Z,-3.87
2022-12-13T18:29:04.170Z,-3.91
2022-12-13T18:31:31.355Z,-3.89
2022-12-13T18:33:59.827Z,-3.91
2022-12-13T18:36:27.186Z,-3.93
2022-12-13T18:38:54.326Z,-3.95
2022-12-13T18:41:28.211Z,-3.94
2022-12-13T18:43:59.187Z,-4.02
2022-12-13T18:46:29.139Z,-3.99
2022-12-13T18:48:57.322Z,-4.00
2022-12-13T18:51:25.258Z,-4.07
2022-12-13T18:53:52.411Z,-4.01
2022-12-13T18:56:19.794Z,-4.05
2022-12-13T18:58:48.268Z,-4.03
2022-12-13T19:01:16.610Z,-4.02
2022-12-13T19:03:45.826Z,-4.02
2022-12-13T19:06:21.724Z,-4.13
2022-12-13T19:08:51.397Z,-4.09
2022-12-13T19:11:19.715Z,-4.08
2022-12-13T19:13:47.580Z,-4.05
2022-12-13T19:16:17.532Z,-4.12
2022-12-13T19:18:44.845Z,-4.09
2022-12-13T19:21:15.612Z,-4.08
2022-12-13T19:23:42.941Z,-4.11
2022-12-13T19:26:13.242Z,-4.15
2022-12-13T19:28:41.693Z,-4.11
2022-12-13T19:31:10.975Z,-4.12
2022-12-13T19:33:38.106Z,-4.10
2022-12-13T19:36:08.044Z,-4.10
2022-12-13T19:38:35.824Z,-4.11
2022-12-13T19:41:17.732Z,-4.09
2022-12-13T19:43:50.773Z,-4.11
2022-12-13T19:46:20.298Z,-4.12
2022-12-13T19:48:47.909Z,-4.10
2022-12-13T19:51:15.673Z,-4.16
2022-12-13T19:53:42.630Z,-4.15
2022-12-13T19:56:15.244Z,-4.15
2022-12-13T19:58:42.393Z,-4.16
2022-12-13T20:01:10.494Z,-4.22
2022-12-13T20:03:40.950Z,-4.16
2022-12-13T20:06:09.889Z,-4.16
2022-12-13T20:08:37.430Z,-4.15
2022-12-13T20:11:08.537Z,-4.16
2022-12-13T20:13:36.917Z,-4.16
2022-12-13T20:16:07.287Z,-4.21
2022-12-13T20:18:35.578Z,-4.23
2022-12-13T20:21:12.817Z,-4.17
2022-12-13T20:23:48.692Z,-4.19
2022-12-13T20:26:20.808Z,-4.09
2022-12-13T20:28:48.959Z,-4.09
2022-12-13T20:31:21.863Z,-4.09
2022-12-13T20:33:49.089Z,-4.07
2022-12-13T20:36:24.582Z,-4.05
2022-12-13T20:38:55.740Z,-4.05
2022-12-13T20:41:25.441Z,-4.11
2022-12-13T20:43:54.327Z,-3.98
2022-12-13T20:46:22.310Z,-4.00
2022-12-13T20:48:50.238Z,-3.97
2022-12-13T20:51:20.545Z,-3.94
2022-12-13T20:53:49.421Z,-3.97
2022-12-13T20:56:19.389Z,-3.92
2022-12-13T20:58:46.869Z,-3.89
2022-12-13T21:01:18.130Z,-3.91
2022-12-13T21:03:45.604Z,-3.92
2022-12-13T21:06:12.857Z,-3.87
2022-12-13T21:08:52.373Z,-3.85
2022-12-13T21:11:35.739Z,-3.84
2022-12-13T21:14:15.168Z,-3.86
2022-12-13T21:16:59.293Z,-3.86
2022-12-13T21:19:29.489Z,-3.86
2022-12-13T21:21:59.222Z,-3.91
2022-12-13T21:24:27.806Z,-3.86
2022-12-13T21:26:59.777Z,-3.89
2022-12-13T21:29:26.878Z,-3.86
2022-12-13T21:31:54.842Z,-3.87
2022-12-13T21:34:22.481Z,-3.87
2022-12-13T21:36:52.257Z,-3.87
2022-12-13T21:39:22.930Z,-3.88
2022-12-13T21:41:50.579Z,-3.87
2022-12-13T21:44:18.484Z,-3.90
2022-12-13T21:49:33.315Z,-3.92
2022-12-13T21:52:00.285Z,-3.94
2022-12-13T21:54:27.294Z,-3.96
2022-12-13T21:57:12.803Z,-3.93
2022-12-13T21:59:39.886Z,-3.95
2022-12-13T22:02:12.684Z,-3.92
2022-12-13T22:04:41.258Z,-3.92
2022-12-13T22:07:09.433Z,-3.99
2022-12-13T22:09:37.501Z,-3.92
2022-12-13T22:12:10.480Z,-3.91
2022-12-13T22:14:37.627Z,-3.90
2022-12-13T22:17:05.745Z,-3.90
2022-12-13T22:19:32.771Z,-3.88
2022-12-13T22:21:59.842Z,-3.90
2022-12-13T22:24:26.796Z,-3.85
2022-12-13T22:26:53.809Z,-3.81
2022-12-13T22:29:20.802Z,-3.77
2022-12-13T22:31:48.857Z,-3.73
2022-12-13T22:34:16.842Z,-3.70
2022-12-13T22:36:43.921Z,-3.66
2022-12-13T22:39:22.740Z,-3.66
2022-12-13T22:41:51.316Z,-3.60
2022-12-13T22:44:20.682Z,-3.61
2022-12-13T22:46:47.791Z,-3.62
2022-12-13T22:49:15.224Z,-3.63
2022-12-13T22:51:42.321Z,-3.67
2022-12-13T22:54:09.816Z,-3.64
2022-12-13T22:56:37.199Z,-3.72
2022-12-13T22:59:07.088Z,-3.68
2022-12-13T23:01:38.339Z,-3.73
2022-12-13T23:04:07.429Z,-3.70
2022-12-13T23:06:37.487Z,-3.70
2022-12-13T23:09:08.342Z,-3.71
2022-12-13T23:11:53.802Z,-3.71
2022-12-13T23:14:27.397Z,-3.73
2022-12-13T23:16:54.605Z,-3.77
2022-12-13T23:22:08.744Z,-3.77
2022-12-13T23:24:39.017Z,-3.72
2022-12-13T23:27:08.871Z,-3.77
2022-12-13T23:29:39.063Z,-3.77
2022-12-13T23:32:07.293Z,-3.75
2022-12-13T23:34:34.386Z,-3.78
2022-12-13T23:37:01.375Z,-3.78
2022-12-13T23:39:28.404Z,-3.74
2022-12-13T23:41:55.624Z,-3.77
2022-12-13T23:44:22.942Z,-3.75
2022-12-13T23:46:50.209Z,-3.74
2022-12-13T23:49:17.406Z,-3.76
2022-12-13T23:51:44.521Z,-3.75
2022-12-13T23:54:17.613Z,-3.76
2022-12-13T23:56:44.877Z,-3.73
2022-12-13T23:59:11.912Z,-3.79
